ADDS TAF Board (Experimental) INFO Settings
IDs: Format: Expanded Condensed

KJFK - New York/Kennedy Int, NY, US

Issued at 0832 UTC 02 Sep 2015
Updated at: 1032 UTC 02 Sep 2015
Time0951Z 02/11Z 02/12Z 02/13Z 02/14Z 02/15Z 02/16Z 02/17Z 02/18Z 02/19Z 02/20Z 02/21Z 02/22Z 02/23Z
Type OBS PRVL PRVL PRVL PRVL PRVL PRVL PRVL PRVL PRVL PRVL PRVL PRVL PRVL
VIS 7 >6 >6 >6 >6 >6 >6 >6 >6 >6 >6 >6 >6 >6
CIG -- -- -- -- -- -- -- -- -- -- -- -- -- --
Cover CLR SKC SKC FEW FEW FEW FEW SCT SCT SCT SCT SCT SCT SCT
FltCat VFR VFR VFR VFR VFR VFR VFR VFR VFR VFR VFR VFR VFR VFR
WX -- -- -- -- -- -- -- -- -- -- -- -- -- --
WDir 190 220 220 200 200 200 200 180 180 180 180 180 180 180
WSpd 4 3 3 5 5 5 5 11 11 11 11 11 11 11
WGst -- -- -- -- -- -- -- -- -- -- -- -- -- --
R04/22
XWnd -1 0 0 -1 -1 -1 -1 -6 -6 -6 -6 -6 -6 -6
HWnd -4 -3 -3 -5 -5 -5 -5 -9 -9 -9 -9 -9 -9 -9
R13/31
XWnd -4 -3 -3 -5 -5 -5 -5 -9 -9 -9 -9 -9 -9 -9
HWnd 1 -0 -0 1 1 1 1 6 6 6 6 6 6 6

NOTE: TEMPO conditions in [brackets]. Keep in mind TEMPO conditions might be better (lower impact) than prevailing conditions.

Raw TAF
KJFK 020832Z 0209/0312 22003KT P6SM SKC
  FM021300 20005KT P6SM FEW050
  FM021700 18011KT P6SM SCT050
  FM030200 20006KT P6SM FEW050
  FM030600 VRB03KT P6SM FEW080


Raw METAR
KJFK 020951Z 19004KT 7SM CLR 22/20 A3003 RMK AO2 SLP169 T02170200 $
KJFK 020851Z 19004KT 7SM CLR 22/21 A3003 RMK AO2 SLP169 T02220206 56010
KJFK 020751Z 22003KT 8SM CLR 23/21 A3004 RMK AO2 SLP170 T02280206

METAR Board
Radar Display
Forecast Discussion

TAF Board Legend

Potential Impact
Threat None Slight Moderate High
Visibility (sm) ≥5.1 5.1>X≥3 3>X≥1 <1
Ceiling (100 ft) ≥30.1 30.1>X≥10 10>X≥5 <5
Wind Speed (kt) <10 10≤X<20 20≤X<30 ≥30
Wind Gust (kt) <15 15≤X<25 25≤X<35 ≥35
Weather No Wx Reported VCTS,-TS,-FZRA,SN TS,FZRA +TS,+FZRA,+SN